Aérodrome :
LOGIN :

S'inscrire | Disclaimer

   EN    FR    IT 

 










Légende :    VFR   VFR Marginal   IFR   IFR Intensif   IFR Très Intensif
Visi : 
Plafond : 
>= 8 km
>= 3000ft
5 à 8 km
1000 à 3000 ft
1500m à 5 km
500 à 1000 ft
800 à 1500m
200 à 500 ft
< 800m
< 200 ft
Symboles :   Orages  Brouillard  Fortes neiges  Fortes précipitations  Vent > 20 kt
SIGMETs :   Divers  Orages  Givrage  Turbulence  Onde Orograph.  Cendres Volcan.







- Altitude de l'aérodrome : 20 ft


EBFN - Koksijde

DERNIER METAR :
  • 160855Z AUTO 21011KT 9999 FEW024/// 18/11 Q1019 BLU

METARs EXPIRÉS :
  • 160825Z AUTO 22010KT 9999 SCT019/// SCT063/// 17/12 Q1019 WHT
  • 160803Z AUTO 22011KT 9999 SCT020/// BKN061/// 17/12 Q1019 WHT
  • 160755Z AUTO 22011KT 9999 FEW019/// BKN061/// 17/12 Q1019 BLU
  • 160725Z AUTO 23009KT 9999 BKN019/// BKN060/// 16/12 Q1019 WHT
  • 160710Z AUTO 22011KT 9999 SCT017/// BKN061/// 16/12 Q1019 WHT
  • 160655Z AUTO 22007KT 9999 FEW013/// BKN063/// 16/12 Q1019 BLU
  • 160625Z AUTO 23008KT 9999 SCT036/// BKN066/// 15/13 Q1019 BLU

TAF TAF EBFN
Valide du 16 à 07h jusqu'au 16 à 16h UTC


160541Z 1607/1616 23010KT 9999 SCT030
TEMPO 1607/1608 20008KT BKN010
PROB40
TEMPO 1608/1616 6000 -SHRA SCT020 BKN090
Pas de NOTAMs connus pour ce terrain.



MET'MAP, la Météo Aéronautique d'un coup d'oeil ! - Copyright ORBIFLY Décembre 2007 - Disclaimer

ORBIFLY MET'MAP TEAM :

Programmation & Développement : Alexandra Zaïnal
Conception & Développement : Baudouin d'Aumeries
Co-Programmation & Développement : Marc-Olivier Méhu
Soutien technique & logistique : Manuel Goepfert

Contact : metmap@orbifly.com




SOURCES & CREDITS :

   NOAA